Time;durP1;ratioP1;P1;durP2;ratioP2;P2;SDS_P1;SDS_P2;PMS_P1;PMS_P2;Temp;Humidity;BMP_temperature;BMP_pressure;BME280_temperature;BME280_humidity;BME280_pressure;Samples;Min_cycle;Max_cycle;Signal;HPM_P1;HPM_P2
2021/06/09 00:01:41;;;;;;;4.93;3.67;;;24.20;51.10;;;;;;4937068;29;20408;-85
2021/06/09 00:04:07;;;;;;;3.83;3.28;;;24.10;51.10;;;;;;4941783;29;20094;-85
2021/06/09 00:06:33;;;;;;;4.22;3.22;;;24.10;51.20;;;;;;4972819;28;20026;-85
2021/06/09 00:09:11;;;;;;;3.70;2.92;;;24.10;51.20;;;;;;4941748;28;20558;-86
2021/06/09 00:11:37;;;;;;;4.40;3.63;;;24.00;51.30;;;;;;4957273;28;20039;-86
2021/06/09 00:14:05;;;;;;;4.20;3.42;;;24.00;51.20;;;;;;4966269;28;20031;-87
2021/06/09 00:16:32;;;;;;;4.10;3.35;;;24.00;51.30;;;;;;4973272;28;20037;-86
2021/06/09 00:18:58;;;;;;;3.88;3.05;;;23.90;51.30;;;;;;4939420;28;20039;-87
2021/06/09 00:21:24;;;;;;;4.45;3.40;;;23.90;51.30;;;;;;4975629;28;20113;-87
2021/06/09 00:23:50;;;;;;;4.90;3.78;;;23.90;51.40;;;;;;4966133;28;20033;-86
2021/06/09 00:26:18;;;;;;;4.20;3.33;;;23.80;51.40;;;;;;4988806;28;20035;-86
2021/06/09 00:28:45;;;;;;;4.90;3.72;;;23.80;51.50;;;;;;4964419;28;20075;-87
2021/06/09 00:31:12;;;;;;;4.22;3.28;;;23.80;51.50;;;;;;4957147;28;20147;-86
2021/06/09 00:33:38;;;;;;;4.43;3.33;;;23.70;51.50;;;;;;4971997;28;20030;-86
2021/06/09 00:36:04;;;;;;;4.43;3.65;;;23.70;51.60;;;;;;4973577;28;20094;-86
2021/06/09 00:38:30;;;;;;;5.80;3.88;;;23.70;51.60;;;;;;4974896;28;20054;-86
2021/06/09 00:40:58;;;;;;;3.80;2.92;;;23.70;51.70;;;;;;4941591;28;20038;-83
2021/06/09 00:43:27;;;;;;;4.38;3.70;;;23.70;51.80;;;;;;4956816;28;20538;-86
2021/06/09 00:45:56;;;;;;;5.07;3.75;;;23.60;51.80;;;;;;4938056;28;20030;-87
2021/06/09 00:48:27;;;;;;;4.13;3.20;;;23.60;51.80;;;;;;4985021;28;20542;-86
2021/06/09 00:50:55;;;;;;;3.88;3.22;;;23.50;51.80;;;;;;4956884;28;20039;-86
2021/06/09 00:53:58;;;;;;;4.05;3.20;;;23.50;51.90;;;;;;4957065;28;20030;-86
2021/06/09 00:56:14;;;;;;;4.20;3.40;;;23.50;51.90;;;;;;4939453;28;20054;-85
2021/06/09 00:58:42;;;;;;;4.57;3.33;;;23.40;51.90;;;;;;4972679;28;20199;-86
2021/06/09 01:01:10;;;;;;;4.43;3.53;;;23.40;52.00;;;;;;4946412;28;20483;-86
2021/06/09 01:03:37;;;;;;;3.88;3.28;;;23.40;52.10;;;;;;4936191;28;20050;-86
2021/06/09 01:06:04;;;;;;;4.05;3.22;;;23.30;52.00;;;;;;4955726;28;20117;-86
2021/06/09 01:08:34;;;;;;;4.57;3.38;;;23.30;52.10;;;;;;4925027;28;20027;-85
2021/06/09 01:11:00;;;;;;;4.88;3.83;;;23.30;52.10;;;;;;4952387;28;20098;-86
2021/06/09 01:13:29;;;;;;;4.88;3.65;;;23.30;52.20;;;;;;4973512;28;20030;-86
2021/06/09 01:15:55;;;;;;;4.50;3.63;;;23.20;52.80;;;;;;4941081;28;20390;-86
2021/06/09 01:18:21;;;;;;;4.70;3.47;;;23.20;52.20;;;;;;4924956;28;20114;-86
2021/06/09 01:20:48;;;;;;;4.43;3.50;;;23.20;52.30;;;;;;4940705;28;20027;-86
2021/06/09 01:23:14;;;;;;;5.05;3.50;;;23.20;52.30;;;;;;4956856;28;20031;-86
2021/06/09 01:25:41;;;;;;;4.80;3.63;;;23.10;52.30;;;;;;4956867;28;20132;-86
2021/06/09 01:28:07;;;;;;;4.65;3.45;;;23.10;52.40;;;;;;4937364;29;20023;-86
2021/06/09 01:30:35;;;;;;;4.85;3.70;;;23.10;52.50;;;;;;4961353;28;20031;-86
2021/06/09 01:33:01;;;;;;;4.57;3.60;;;23.00;52.40;;;;;;4968038;28;20030;-85
2021/06/09 01:35:27;;;;;;;4.32;3.50;;;23.00;52.50;;;;;;4959606;28;20030;-86
2021/06/09 01:37:54;;;;;;;4.30;3.50;;;23.00;52.50;;;;;;4928396;28;20034;-86
2021/06/09 01:40:22;;;;;;;4.75;3.80;;;23.00;52.50;;;;;;4959225;28;20030;-86
2021/06/09 01:42:51;;;;;;;4.40;3.47;;;22.90;52.50;;;;;;4943735;28;20047;-85
2021/06/09 01:45:25;;;;;;;4.30;3.40;;;22.90;52.60;;;;;;4954956;29;20109;-86
2021/06/09 01:47:52;;;;;;;4.28;3.35;;;22.90;52.70;;;;;;4933604;29;20503;-86
2021/06/09 01:50:18;;;;;;;5.25;3.80;;;22.80;52.60;;;;;;4944032;29;20031;-87
2021/06/09 01:52:45;;;;;;;5.43;3.90;;;22.80;52.70;;;;;;4959645;28;20031;-86
2021/06/09 01:55:13;;;;;;;4.90;3.78;;;22.80;52.70;;;;;;4946795;28;20090;-86
2021/06/09 01:57:39;;;;;;;4.45;3.63;;;22.80;52.80;;;;;;4944092;28;20031;-85
2021/06/09 02:00:11;;;;;;;5.07;4.10;;;22.70;52.80;;;;;;4927858;28;20049;-86
2021/06/09 02:02:38;;;;;;;5.28;3.65;;;22.70;52.90;;;;;;4958844;28;20053;-86
2021/06/09 02:05:09;;;;;;;4.63;3.60;;;22.70;52.90;;;;;;4975197;28;20031;-86
2021/06/09 02:07:43;;;;;;;5.15;3.88;;;22.70;53.00;;;;;;4949399;28;20475;-86
2021/06/09 02:10:17;;;;;;;4.43;3.22;;;22.60;53.00;;;;;;4975422;28;20030;-86
2021/06/09 02:12:52;;;;;;;5.13;3.78;;;22.60;53.00;;;;;;4959366;28;20031;-86
2021/06/09 02:15:21;;;;;;;4.45;3.80;;;22.60;53.10;;;;;;4972763;28;20031;-86
2021/06/09 02:18:11;;;;;;;5.35;3.90;;;22.60;53.10;;;;;;4948469;29;20027;-85
2021/06/09 02:20:41;;;;;;;4.32;3.55;;;22.50;53.10;;;;;;4954790;28;20031;-85
2021/06/09 02:23:10;;;;;;;4.57;3.58;;;22.50;53.20;;;;;;4977753;28;20037;-86
2021/06/09 02:25:37;;;;;;;4.95;3.90;;;22.50;53.30;;;;;;4955469;28;20037;-86
2021/06/09 02:28:05;;;;;;;4.65;3.72;;;22.40;53.30;;;;;;4941696;28;20045;-86
2021/06/09 02:30:32;;;;;;;4.72;3.65;;;22.40;53.30;;;;;;4975074;28;20058;-85
2021/06/09 02:32:58;;;;;;;4.97;3.90;;;22.40;53.40;;;;;;4959019;28;20058;-86
2021/06/09 02:35:25;;;;;;;5.05;4.07;;;22.40;53.40;;;;;;4956341;28;20055;-84
2021/06/09 02:37:53;;;;;;;5.07;4.03;;;22.40;53.50;;;;;;4964911;28;20081;-86
2021/06/09 02:40:20;;;;;;;5.43;4.15;;;22.30;53.50;;;;;;4977633;28;20030;-85
2021/06/09 02:42:47;;;;;;;4.78;3.75;;;22.30;53.60;;;;;;4927334;28;20042;-86
2021/06/09 02:45:18;;;;;;;4.85;3.83;;;22.30;53.60;;;;;;4953852;28;20034;-85
2021/06/09 02:47:55;;;;;;;4.97;3.72;;;22.30;53.70;;;;;;4963136;28;20047;-85
2021/06/09 02:50:23;;;;;;;5.25;4.18;;;22.30;53.80;;;;;;4964697;28;20463;-85
2021/06/09 02:52:54;;;;;;;4.78;3.75;;;22.20;53.70;;;;;;4927014;28;20034;-85
2021/06/09 02:55:35;;;;;;;5.20;4.18;;;22.20;53.80;;;;;;4974110;28;20026;-85
2021/06/09 02:58:15;;;;;;;5.20;3.85;;;22.10;53.80;;;;;;4954307;28;20034;-86
2021/06/09 03:01:00;;;;;;;4.65;3.63;;;22.20;54.00;;;;;;4973698;28;20054;-85
2021/06/09 03:03:46;;;;;;;5.07;3.90;;;22.10;53.90;;;;;;4968386;28;20030;-85
2021/06/09 03:06:20;;;;;;;5.13;4.05;;;22.10;54.00;;;;;;4942105;28;20077;-85
2021/06/09 03:08:59;;;;;;;5.35;3.95;;;22.10;54.00;;;;;;4958540;28;20034;-86
2021/06/09 03:11:55;;;;;;;5.57;4.45;;;22.00;54.00;;;;;;4957827;28;20031;-86
2021/06/09 03:17:06;;;;;;;5.38;4.07;;;22.00;54.10;;;;;;4967581;28;20039;-86
2021/06/09 03:19:47;;;;;;;5.13;4.00;;;21.90;54.10;;;;;;4941385;28;20042;-86
2021/06/09 03:22:43;;;;;;;5.43;4.25;;;21.90;54.20;;;;;;4955126;28;20047;-87
2021/06/09 03:25:15;;;;;;;5.32;4.18;;;21.90;54.30;;;;;;4953454;28;20034;-86
2021/06/09 03:27:55;;;;;;;5.50;4.25;;;21.90;54.20;;;;;;4942216;28;20027;-86
2021/06/09 03:30:23;;;;;;;4.93;4.05;;;21.80;54.30;;;;;;4938765;28;20024;-85
2021/06/09 03:33:07;;;;;;;5.25;4.07;;;21.80;54.20;;;;;;4954704;28;20058;-86
2021/06/09 03:35:38;;;;;;;5.25;3.88;;;21.80;54.40;;;;;;4956120;28;20543;-86
2021/06/09 03:38:10;;;;;;;5.43;4.05;;;21.80;54.20;;;;;;4941776;28;20119;-85
2021/06/09 03:40:42;;;;;;;5.40;4.20;;;21.80;54.30;;;;;;4946225;28;20023;-86
2021/06/09 03:43:11;;;;;;;5.63;4.43;;;21.80;54.40;;;;;;4948835;28;20078;-86
2021/06/09 03:45:49;;;;;;;5.25;4.07;;;21.70;54.40;;;;;;4960639;28;20027;-86
2021/06/09 03:48:16;;;;;;;5.50;4.40;;;21.70;54.50;;;;;;4961376;28;20046;-85
2021/06/09 03:50:46;;;;;;;5.65;4.53;;;21.70;54.50;;;;;;4925950;28;20039;-85
2021/06/09 03:53:12;;;;;;;5.72;4.68;;;21.60;54.50;;;;;;4957465;28;20069;-85
2021/06/09 03:55:39;;;;;;;4.80;4.03;;;21.60;54.50;;;;;;4938610;29;20037;-85
2021/06/09 03:58:10;;;;;;;5.18;4.15;;;21.60;54.60;;;;;;4955972;28;20117;-85
2021/06/09 04:00:37;;;;;;;5.30;4.22;;;21.50;54.60;;;;;;4973535;28;20023;-85
2021/06/09 04:03:05;;;;;;;5.70;4.60;;;21.50;54.60;;;;;;4963319;28;20045;-84
2021/06/09 04:05:31;;;;;;;5.78;4.40;;;21.50;54.60;;;;;;4955236;28;20022;-85
2021/06/09 04:07:59;;;;;;;5.47;4.40;;;21.50;54.70;;;;;;4941917;28;20109;-85
2021/06/09 04:10:26;;;;;;;5.35;4.07;;;21.50;54.80;;;;;;4956145;28;20022;-85
2021/06/09 04:12:52;;;;;;;5.22;4.30;;;21.50;54.80;;;;;;4957440;28;20038;-86
2021/06/09 04:15:22;;;;;;;5.45;4.18;;;21.40;54.70;;;;;;4954811;28;20034;-85
2021/06/09 04:17:49;;;;;;;5.88;4.65;;;21.50;54.80;;;;;;4970206;28;20029;-85
2021/06/09 04:20:23;;;;;;;5.85;4.57;;;21.40;54.80;;;;;;4962460;28;20054;-85
2021/06/09 04:22:49;;;;;;;5.50;4.50;;;21.40;54.90;;;;;;4965686;28;20502;-85
2021/06/09 04:25:15;;;;;;;6.45;4.75;;;21.40;54.80;;;;;;4936569;28;20067;-87
2021/06/09 04:27:44;;;;;;;5.88;4.95;;;21.40;54.90;;;;;;4974106;28;20055;-87
2021/06/09 04:30:10;;;;;;;6.28;5.20;;;21.30;54.90;;;;;;4939825;28;20091;-90
2021/06/09 04:32:50;;;;;;;5.90;4.60;;;21.30;54.90;;;;;;4957558;28;20043;-89
2021/06/09 04:35:16;;;;;;;5.18;4.05;;;21.30;55.00;;;;;;4972926;28;20023;-86
2021/06/09 04:37:42;;;;;;;5.60;4.70;;;21.30;55.00;;;;;;4969900;28;20031;-85
2021/06/09 04:40:22;;;;;;;6.35;5.00;;;21.20;54.90;;;;;;4956162;28;20138;-87
2021/06/09 04:42:49;;;;;;;5.00;4.25;;;21.30;55.10;;;;;;4949170;28;20058;-89
2021/06/09 04:45:17;;;;;;;6.13;4.80;;;21.20;55.00;;;;;;4963379;28;20096;-88
2021/06/09 04:47:45;;;;;;;6.60;5.10;;;21.20;55.10;;;;;;4934194;28;20055;-89
2021/06/09 04:50:12;;;;;;;6.18;4.65;;;21.20;55.10;;;;;;4963591;28;20066;-89
2021/06/09 04:52:38;;;;;;;5.03;4.13;;;21.20;55.10;;;;;;4949796;28;20059;-88
2021/06/09 04:55:07;;;;;;;5.43;4.18;;;21.20;55.10;;;;;;4940396;28;20062;-88
2021/06/09 04:57:33;;;;;;;5.57;4.25;;;21.20;55.20;;;;;;4944087;28;20041;-88
2021/06/09 04:59:59;;;;;;;5.20;4.15;;;21.10;55.10;;;;;;4957495;28;20475;-88
2021/06/09 05:02:25;;;;;;;5.57;4.60;;;21.20;55.20;;;;;;4957137;28;20066;-87
2021/06/09 05:04:51;;;;;;;5.25;4.40;;;21.20;55.20;;;;;;4971707;28;20031;-93
2021/06/09 05:07:17;;;;;;;5.47;4.47;;;21.10;55.20;;;;;;4953042;28;20089;-92
2021/06/09 05:09:43;;;;;;;5.32;4.43;;;21.10;55.20;;;;;;4938155;28;20042;-91
2021/06/09 05:12:19;;;;;;;4.90;4.07;;;21.10;55.20;;;;;;4957459;28;20028;-88
2021/06/09 05:15:03;;;;;;;6.10;4.80;;;21.10;55.40;;;;;;4944753;28;20022;-89
2021/06/09 05:17:45;;;;;;;5.77;4.37;;;21.10;55.40;;;;;;4953448;28;20085;-93
2021/06/09 05:20:27;;;;;;;5.38;4.20;;;21.10;55.40;;;;;;4934723;28;20023;-84
2021/06/09 05:23:20;;;;;;;4.80;3.67;;;21.10;55.40;;;;;;4939401;28;20054;-87
2021/06/09 05:25:49;;;;;;;5.38;4.22;;;21.10;55.60;;;;;;4947722;28;20053;-86
2021/06/09 05:28:16;;;;;;;5.47;4.43;;;21.10;55.40;;;;;;4943368;28;20096;-86
2021/06/09 05:30:43;;;;;;;5.45;4.38;;;21.10;55.50;;;;;;4959077;28;20031;-86
2021/06/09 05:33:11;;;;;;;5.63;4.80;;;21.10;55.50;;;;;;4930261;28;20528;-87
2021/06/09 05:35:37;;;;;;;5.35;4.53;;;21.10;55.50;;;;;;4936492;29;20404;-88
2021/06/09 05:38:04;;;;;;;5.85;4.70;;;21.10;55.50;;;;;;4935238;29;20044;-87
2021/06/09 05:40:30;;;;;;;6.00;4.68;;;21.10;55.50;;;;;;4960004;28;20027;-89
2021/06/09 05:42:56;;;;;;;5.57;4.60;;;21.10;55.40;;;;;;4960286;28;20491;-87
2021/06/09 05:45:33;;;;;;;6.20;4.85;;;21.20;55.50;;;;;;4943792;28;20127;-88
2021/06/09 05:48:00;;;;;;;6.65;5.38;;;21.20;55.60;;;;;;4977477;28;20046;-93
2021/06/09 05:50:29;;;;;;;7.07;5.38;;;21.20;56.20;;;;;;4960550;28;20038;-94
2021/06/09 05:52:58;;;;;;;6.32;4.97;;;21.20;55.60;;;;;;4960213;28;20034;-92
2021/06/09 05:55:28;;;;;;;5.82;4.72;;;21.20;55.60;;;;;;4974175;28;20094;-91
2021/06/09 05:57:55;;;;;;;6.63;5.20;;;21.20;55.60;;;;;;4944077;28;20023;-91
2021/06/09 06:00:24;;;;;;;5.95;4.90;;;21.30;55.70;;;;;;4959534;28;20023;-89
2021/06/09 06:02:50;;;;;;;6.13;4.95;;;21.30;55.60;;;;;;4961199;28;20050;-90
2021/06/09 06:05:17;;;;;;;5.90;4.90;;;21.30;55.60;;;;;;4943126;28;20092;-91
2021/06/09 06:07:44;;;;;;;6.90;5.57;;;21.30;55.60;;;;;;4946463;28;20089;-91
2021/06/09 06:10:11;;;;;;;6.72;5.68;;;21.30;55.60;;;;;;4936617;28;20040;-90
2021/06/09 06:12:37;;;;;;;6.35;5.15;;;21.40;55.70;;;;;;4977252;28;20022;-89
2021/06/09 06:15:09;;;;;;;6.10;4.97;;;21.30;55.70;;;;;;4927896;28;20039;-91
2021/06/09 06:17:44;;;;;;;6.80;5.55;;;21.40;55.80;;;;;;4909910;28;20070;-92
2021/06/09 06:20:18;;;;;;;6.75;6.05;;;21.40;56.00;;;;;;4933615;28;20023;-88
2021/06/09 06:22:46;;;;;;;6.40;5.45;;;21.40;55.90;;;;;;4975375;28;20039;-94
2021/06/09 06:25:17;;;;;;;6.85;5.82;;;21.40;55.90;;;;;;4973541;28;20137;-93
2021/06/09 06:27:45;;;;;;;7.30;6.15;;;21.50;56.00;;;;;;4959862;28;20117;-92
2021/06/09 06:30:13;;;;;;;7.63;6.10;;;21.50;56.10;;;;;;4959370;28;20027;-88
2021/06/09 06:32:40;;;;;;;7.25;6.07;;;21.50;56.10;;;;;;4948416;28;20027;-86
2021/06/09 06:35:10;;;;;;;7.68;6.63;;;21.50;56.20;;;;;;4968054;28;20069;-86
2021/06/09 06:37:37;;;;;;;7.20;6.22;;;21.50;56.20;;;;;;4964932;28;20467;-85
2021/06/09 06:40:04;;;;;;;9.25;6.68;;;21.60;56.30;;;;;;4958713;28;20026;-87
2021/06/09 06:42:30;;;;;;;7.32;6.53;;;21.70;56.40;;;;;;4942593;28;20039;-86
2021/06/09 06:44:56;;;;;;;9.45;6.82;;;21.60;56.30;;;;;;4953160;28;20023;-86
2021/06/09 06:47:25;;;;;;;7.50;6.70;;;21.70;56.40;;;;;;4959605;28;20510;-86
2021/06/09 06:49:52;;;;;;;8.32;7.43;;;21.70;56.50;;;;;;4935922;28;20480;-86
2021/06/09 06:52:18;;;;;;;8.60;7.50;;;21.80;56.60;;;;;;4974563;28;20035;-86
2021/06/09 06:54:44;;;;;;;8.85;6.70;;;21.80;56.50;;;;;;4965998;28;20379;-85
2021/06/09 06:57:12;;;;;;;7.63;6.82;;;21.80;56.50;;;;;;4958240;28;20081;-85
2021/06/09 06:59:38;;;;;;;8.38;7.53;;;21.80;56.50;;;;;;4950523;28;20039;-86
2021/06/09 07:02:06;;;;;;;8.13;7.07;;;21.90;56.60;;;;;;4959508;28;20035;-85
2021/06/09 07:04:32;;;;;;;8.57;7.47;;;21.90;56.60;;;;;;4957666;28;20062;-87
2021/06/09 07:06:59;;;;;;;8.90;7.25;;;21.90;56.60;;;;;;4960914;28;20097;-86
2021/06/09 07:09:25;;;;;;;8.25;7.10;;;21.90;56.50;;;;;;4946905;28;20022;-87
2021/06/09 07:11:52;;;;;;;8.55;7.40;;;22.00;56.60;;;;;;4949701;28;20117;-85
2021/06/09 07:14:23;;;;;;;8.80;7.85;;;22.00;56.60;;;;;;4939904;28;20031;-86
2021/06/09 07:16:50;;;;;;;8.60;7.72;;;22.10;57.30;;;;;;4933450;28;20069;-86
2021/06/09 07:19:17;;;;;;;8.77;7.60;;;22.10;56.60;;;;;;4940957;28;20030;-85
2021/06/09 07:21:43;;;;;;;8.73;7.63;;;22.10;56.50;;;;;;4963359;28;20046;-87
2021/06/09 07:24:09;;;;;;;8.82;7.93;;;22.10;56.50;;;;;;4970763;28;20483;-86
2021/06/09 07:26:40;;;;;;;8.45;7.53;;;22.20;56.60;;;;;;4973622;28;20033;-86
2021/06/09 07:29:07;;;;;;;9.02;8.07;;;22.20;56.60;;;;;;4960131;28;20022;-87
2021/06/09 07:31:37;;;;;;;8.68;7.68;;;22.30;56.60;;;;;;4959739;28;20503;-87
2021/06/09 07:34:04;;;;;;;8.90;7.82;;;22.30;56.60;;;;;;4969630;28;20031;-87
2021/06/09 07:37:01;;;;;;;10.48;8.27;;;22.40;56.50;;;;;;4959064;28;20298;-86
2021/06/09 07:39:34;;;;;;;9.38;7.70;;;22.50;56.60;;;;;;4964689;28;20030;-86
2021/06/09 07:42:05;;;;;;;8.13;6.85;;;22.50;56.30;;;;;;4943350;28;20057;-85
2021/06/09 07:44:37;;;;;;;8.32;7.45;;;22.60;56.30;;;;;;4949242;28;20027;-88
2021/06/09 07:47:06;;;;;;;8.35;7.35;;;22.70;56.70;;;;;;4957509;28;20031;-87
2021/06/09 07:49:34;;;;;;;8.60;7.70;;;22.70;56.60;;;;;;4938594;29;20046;-86
2021/06/09 07:52:01;;;;;;;9.32;7.68;;;22.80;56.50;;;;;;4952821;28;20031;-83
2021/06/09 07:54:27;;;;;;;8.65;7.18;;;22.80;56.30;;;;;;4971270;28;20027;-83
2021/06/09 07:56:58;;;;;;;9.15;8.13;;;22.90;56.30;;;;;;4973090;28;20038;-85
2021/06/09 07:59:25;;;;;;;9.38;7.15;;;23.00;56.20;;;;;;4956763;28;20031;-85
2021/06/09 08:01:51;;;;;;;9.07;8.18;;;23.10;56.10;;;;;;4972212;28;20043;-85
2021/06/09 08:04:17;;;;;;;8.73;7.45;;;23.20;56.10;;;;;;4987442;28;20111;-84
2021/06/09 08:06:44;;;;;;;8.60;7.70;;;23.20;56.00;;;;;;4939912;28;20027;-85
2021/06/09 08:09:10;;;;;;;8.77;7.57;;;23.30;56.00;;;;;;4969022;28;20414;-85
2021/06/09 08:11:39;;;;;;;10.00;7.65;;;23.30;55.80;;;;;;4961987;28;20037;-84
2021/06/09 08:14:07;;;;;;;7.78;6.97;;;23.40;55.80;;;;;;4944485;28;20046;-85
2021/06/09 08:16:34;;;;;;;7.78;6.90;;;23.50;55.70;;;;;;4958569;28;20035;-85
2021/06/09 08:19:05;;;;;;;7.70;6.53;;;23.60;55.60;;;;;;4958741;28;20114;-84
2021/06/09 08:21:32;;;;;;;8.80;7.28;;;23.60;55.60;;;;;;4963901;28;20027;-84
2021/06/09 08:23:57;;;;;;;7.65;6.45;;;23.70;55.50;;;;;;4976434;28;20030;-85
2021/06/09 08:26:24;;;;;;;6.63;5.93;;;23.80;55.40;;;;;;4940859;28;20400;-85
2021/06/09 08:28:51;;;;;;;7.43;6.47;;;23.80;55.30;;;;;;4951715;28;20034;-86
2021/06/09 08:31:20;;;;;;;7.57;6.50;;;24.00;55.30;;;;;;4972259;28;20066;-85
2021/06/09 08:33:47;;;;;;;6.95;6.15;;;24.00;55.20;;;;;;4943191;28;20026;-85
2021/06/09 08:36:14;;;;;;;7.07;6.38;;;24.10;55.10;;;;;;4954788;28;20035;-85
2021/06/09 08:38:42;;;;;;;7.05;6.20;;;24.20;55.10;;;;;;4935236;29;20068;-85
2021/06/09 08:41:10;;;;;;;7.32;6.22;;;24.30;55.00;;;;;;4964888;28;20019;-85
2021/06/09 08:43:38;;;;;;;7.10;6.15;;;24.40;54.90;;;;;;4958358;28;20023;-85
2021/06/09 08:46:06;;;;;;;6.68;5.55;;;24.50;54.90;;;;;;4959891;28;20037;-84
2021/06/09 08:48:38;;;;;;;6.35;5.63;;;24.50;55.40;;;;;;4959191;28;20559;-84
2021/06/09 08:51:08;;;;;;;7.47;6.22;;;24.60;55.40;;;;;;4960255;28;20031;-85
2021/06/09 08:53:35;;;;;;;6.90;5.85;;;24.70;54.70;;;;;;4943904;28;20533;-84
2021/06/09 08:56:02;;;;;;;6.20;5.30;;;24.80;54.60;;;;;;4960341;28;20121;-85
2021/06/09 08:58:28;;;;;;;6.53;5.28;;;24.80;54.50;;;;;;4944472;28;20109;-85
2021/06/09 09:00:55;;;;;;;6.60;5.65;;;24.90;54.40;;;;;;4975221;28;20015;-85
2021/06/09 09:03:21;;;;;;;6.72;5.53;;;25.10;54.50;;;;;;4959951;28;20051;-85
2021/06/09 09:05:47;;;;;;;5.70;5.03;;;25.10;54.40;;;;;;4943856;28;20551;-85
2021/06/09 09:08:12;;;;;;;6.00;5.25;;;25.20;54.30;;;;;;4943971;28;20118;-86
2021/06/09 09:10:38;;;;;;;6.18;5.57;;;25.30;54.20;;;;;;4943726;28;20041;-87
2021/06/09 09:13:05;;;;;;;5.95;5.10;;;25.30;54.10;;;;;;4956619;28;20468;-85
2021/06/09 09:15:31;;;;;;;6.00;5.00;;;25.50;54.10;;;;;;4954180;28;20101;-86
2021/06/09 09:18:03;;;;;;;5.85;5.00;;;25.60;54.10;;;;;;4975942;28;20033;-85
2021/06/09 09:20:44;;;;;;;5.80;4.97;;;25.60;54.00;;;;;;4975984;28;20035;-84
2021/06/09 09:23:30;;;;;;;6.03;5.03;;;25.80;54.20;;;;;;4944637;28;20093;-85
2021/06/09 09:25:59;;;;;;;5.60;4.70;;;25.80;54.00;;;;;;4959218;28;20877;-85
2021/06/09 09:28:31;;;;;;;5.97;4.97;;;25.90;53.90;;;;;;4943069;28;20110;-86
2021/06/09 09:31:26;;;;;;;5.68;4.88;;;26.00;54.60;;;;;;4972048;28;20034;-83
2021/06/09 09:33:52;;;;;;;5.28;4.43;;;26.10;53.90;;;;;;4959438;28;20041;-91
2021/06/09 09:36:30;;;;;;;6.68;5.22;;;26.20;53.80;;;;;;4943345;28;20035;-85
2021/06/09 09:38:57;;;;;;;7.10;6.35;;;26.20;54.00;;;;;;4963008;28;20387;-86
2021/06/09 09:41:31;;;;;;;7.55;6.85;;;26.30;54.00;;;;;;4977467;28;20043;-86
2021/06/09 09:44:01;;;;;;;8.48;7.57;;;26.40;53.90;;;;;;4962506;28;20030;-85
2021/06/09 09:46:38;;;;;;;8.65;7.75;;;26.50;53.50;;;;;;4943401;28;20030;-85
2021/06/09 09:49:11;;;;;;;8.25;7.45;;;26.60;53.40;;;;;;4931140;29;20055;-86
2021/06/09 09:51:56;;;;;;;8.52;7.65;;;26.70;53.40;;;;;;4956223;29;20035;-85
2021/06/09 09:54:30;;;;;;;8.65;7.68;;;26.80;53.40;;;;;;4928159;29;20062;-86
2021/06/09 09:56:58;;;;;;;9.38;8.07;;;26.90;53.30;;;;;;4956257;29;20460;-86
2021/06/09 09:59:26;;;;;;;8.77;7.88;;;27.00;53.10;;;;;;4908942;29;20460;-86
2021/06/09 10:01:54;;;;;;;7.63;6.82;;;27.00;52.80;;;;;;4923252;29;20070;-84
2021/06/09 10:04:30;;;;;;;8.20;7.38;;;27.20;52.50;;;;;;4937379;29;20035;-83
2021/06/09 10:06:57;;;;;;;8.60;7.18;;;27.20;52.40;;;;;;4939220;29;20485;-84
2021/06/09 10:09:28;;;;;;;7.55;6.75;;;27.30;52.20;;;;;;4941551;29;20105;-84
2021/06/09 10:12:05;;;;;;;7.90;7.10;;;27.40;52.20;;;;;;4944170;29;20369;-84
2021/06/09 10:14:35;;;;;;;7.82;7.03;;;27.50;52.10;;;;;;4929269;29;20035;-84
2021/06/09 10:17:05;;;;;;;8.95;8.00;;;27.50;51.90;;;;;;4938414;29;20028;-84
2021/06/09 10:19:34;;;;;;;9.32;7.43;;;27.70;51.90;;;;;;4922429;29;20046;-84
2021/06/09 10:22:05;;;;;;;8.13;7.18;;;27.70;51.60;;;;;;4938954;29;20042;-87
2021/06/09 10:24:46;;;;;;;9.35;7.55;;;27.80;51.40;;;;;;4956006;29;20027;-84
2021/06/09 10:27:14;;;;;;;8.30;7.43;;;27.90;51.20;;;;;;4938875;29;20027;-84
2021/06/09 10:29:40;;;;;;;8.02;7.22;;;27.90;50.90;;;;;;4954459;29;20023;-83
2021/06/09 10:32:19;;;;;;;8.45;7.50;;;28.00;51.40;;;;;;4922296;29;20093;-83
2021/06/09 10:34:46;;;;;;;8.38;7.47;;;28.10;50.80;;;;;;4923554;29;20376;-84
2021/06/09 10:37:12;;;;;;;8.55;6.70;;;28.10;50.40;;;;;;4938402;29;20062;-83
2021/06/09 10:39:40;;;;;;;7.45;6.22;;;28.10;50.10;;;;;;4903693;29;20183;-82
2021/06/09 10:42:15;;;;;;;6.78;5.75;;;28.20;50.00;;;;;;4949521;28;20027;-84
2021/06/09 10:44:45;;;;;;;6.60;5.85;;;28.30;49.80;;;;;;4956252;29;20135;-85
2021/06/09 10:47:17;;;;;;;7.35;5.28;;;28.30;49.60;;;;;;4939949;28;20166;-88
2021/06/09 10:49:43;;;;;;;6.18;5.13;;;28.40;49.60;;;;;;4975152;28;20037;-91
2021/06/09 10:52:11;;;;;;;6.40;5.18;;;28.50;49.70;;;;;;4943250;28;20035;-91
2021/06/09 10:54:38;;;;;;;6.32;4.72;;;28.60;49.80;;;;;;4974370;28;20487;-89
2021/06/09 10:57:06;;;;;;;5.32;4.30;;;28.60;49.80;;;;;;4959613;28;20498;-90
2021/06/09 10:59:33;;;;;;;5.70;4.43;;;28.70;49.90;;;;;;4979244;28;20471;-90
2021/06/09 11:02:06;;;;;;;5.57;4.32;;;28.80;50.00;;;;;;4973775;28;20031;-89
2021/06/09 11:04:37;;;;;;;4.90;3.70;;;28.90;50.00;;;;;;4979480;28;20030;-89
2021/06/09 11:07:06;;;;;;;5.13;3.90;;;28.90;50.00;;;;;;4976997;28;20039;-89
2021/06/09 11:09:32;;;;;;;4.28;3.60;;;29.00;50.10;;;;;;4959221;28;20026;-90
2021/06/09 11:12:13;;;;;;;5.28;3.80;;;29.10;50.20;;;;;;4974040;28;20542;-91
2021/06/09 11:14:51;;;;;;;4.20;3.42;;;29.20;50.40;;;;;;4975755;28;20067;-88
2021/06/09 11:17:45;;;;;;;5.00;3.63;;;29.20;50.30;;;;;;4956904;28;20511;-89
2021/06/09 11:20:13;;;;;;;4.65;3.72;;;29.30;50.40;;;;;;4953883;28;20039;-89
2021/06/09 11:22:47;;;;;;;4.78;3.50;;;29.40;50.40;;;;;;4984210;28;20039;-89
2021/06/09 11:25:19;;;;;;;;;;;29.40;50.40;;;;;;4971522;28;20039;-90
2021/06/09 11:27:53;;;;;;;4.97;3.25;;;29.40;50.60;;;;;;4987344;28;19917;-90
2021/06/09 11:30:26;;;;;;;4.28;3.20;;;29.50;50.60;;;;;;4956295;28;20027;-89
2021/06/09 11:32:52;;;;;;;3.88;3.00;;;29.50;50.70;;;;;;4968614;28;20065;-89
2021/06/09 11:35:23;;;;;;;3.80;3.05;;;29.50;50.70;;;;;;4943582;28;20454;-88
2021/06/09 11:38:12;;;;;;;4.68;3.33;;;29.50;50.80;;;;;;4973669;28;20114;-89
2021/06/09 11:41:06;;;;;;;4.57;3.35;;;29.60;51.10;;;;;;4962655;28;20484;-90
2021/06/09 11:43:51;;;;;;;3.58;3.00;;;29.60;51.10;;;;;;4968402;28;20107;-89
2021/06/09 11:46:17;;;;;;;3.53;3.00;;;29.60;51.10;;;;;;4965626;28;20030;-90
2021/06/09 11:48:57;;;;;;;4.43;3.42;;;29.60;51.20;;;;;;4973250;28;20059;-90
2021/06/09 11:51:28;;;;;;;4.15;3.25;;;29.60;51.30;;;;;;4973507;28;20038;-89
2021/06/09 11:53:58;;;;;;;4.80;3.45;;;29.70;51.40;;;;;;4973395;28;20467;-89
2021/06/09 11:56:32;;;;;;;4.85;3.80;;;29.70;51.40;;;;;;4957061;28;20034;-88
2021/06/09 11:59:01;;;;;;;4.47;3.60;;;29.70;51.50;;;;;;4973605;28;20053;-89
2021/06/09 12:01:47;;;;;;;3.97;3.17;;;29.70;51.50;;;;;;4973760;28;20043;-88
2021/06/09 12:04:21;;;;;;;4.00;2.95;;;29.70;51.80;;;;;;4972896;28;20062;-88
2021/06/09 12:07:20;;;;;;;4.32;3.38;;;29.70;51.80;;;;;;4973448;28;20037;-87
2021/06/09 12:09:47;;;;;;;5.13;3.15;;;29.70;51.80;;;;;;4969759;28;20062;-88
2021/06/09 12:12:22;;;;;;;4.43;3.17;;;29.80;51.90;;;;;;4963997;28;20046;-90
2021/06/09 12:14:52;;;;;;;3.95;3.15;;;29.80;51.90;;;;;;4989122;28;20035;-88
2021/06/09 12:17:31;;;;;;;3.83;2.97;;;29.80;52.00;;;;;;4972303;28;20169;-86
2021/06/09 12:20:16;;;;;;;4.30;3.28;;;29.80;52.00;;;;;;4989281;28;20067;-88
2021/06/09 12:22:43;;;;;;;4.63;3.17;;;29.80;52.10;;;;;;4973456;28;20030;-89
2021/06/09 12:25:21;;;;;;;3.88;2.95;;;29.80;52.10;;;;;;4968632;28;20034;-84
2021/06/09 12:28:13;;;;;;;3.65;2.90;;;29.80;52.10;;;;;;4989247;28;20023;-84
2021/06/09 12:30:42;;;;;;;3.85;3.25;;;29.80;52.20;;;;;;4969792;28;20023;-86
2021/06/09 12:33:09;;;;;;;3.90;3.25;;;29.80;52.10;;;;;;4983026;28;20038;-86
2021/06/09 12:35:35;;;;;;;3.67;3.08;;;29.80;52.10;;;;;;4976890;28;20031;-87
2021/06/09 12:38:04;;;;;;;3.67;2.97;;;29.80;52.10;;;;;;4972647;28;20044;-87
2021/06/09 12:40:33;;;;;;;4.13;2.97;;;29.80;52.10;;;;;;4956672;28;20027;-87
2021/06/09 12:43:01;;;;;;;3.70;2.95;;;29.80;52.10;;;;;;4989253;28;20031;-85
2021/06/09 12:45:29;;;;;;;4.90;3.17;;;29.80;52.10;;;;;;4940928;28;20045;-86
2021/06/09 12:48:06;;;;;;;3.45;2.97;;;29.90;52.20;;;;;;4972289;28;20050;-86
2021/06/09 12:50:39;;;;;;;4.03;2.97;;;29.80;52.10;;;;;;4961155;28;20035;-89
2021/06/09 12:53:13;;;;;;;3.50;2.78;;;29.90;52.10;;;;;;4972879;28;20042;-86
2021/06/09 12:55:43;;;;;;;3.50;2.67;;;29.90;52.10;;;;;;4972939;28;20027;-87
2021/06/09 12:58:10;;;;;;;3.85;2.92;;;29.90;52.10;;;;;;4988989;28;20030;-88
2021/06/09 13:00:42;;;;;;;3.55;2.60;;;29.90;52.10;;;;;;4986312;28;20379;-87
2021/06/09 13:03:15;;;;;;;3.83;2.90;;;29.90;52.00;;;;;;4972742;28;20043;-86
2021/06/09 13:06:13;;;;;;;4.18;3.03;;;29.90;52.00;;;;;;4972211;28;20027;-83
2021/06/09 13:08:46;;;;;;;3.63;2.72;;;29.90;52.10;;;;;;4972197;28;20078;-85